Time;durP1;ratioP1;P1;durP2;ratioP2;P2;SDS_P1;SDS_P2;PMS_P1;PMS_P2;Temp;Humidity;BMP_temperature;BMP_pressure;BME280_temperature;BME280_humidity;BME280_pressure;Samples;Min_cycle;Max_cycle;Signal;HPM_P1;HPM_P2
2021/10/25 00:01:16;;;;;;;29.70;12.98;;;;;;;;;;5090247;28;20487;-57
2021/10/25 00:03:43;;;;;;;23.45;11.25;;;;;;;;;;5091544;28;20499;-57
2021/10/25 00:06:09;;;;;;;30.05;10.02;;;;;;;;;;5091424;28;20783;-57
2021/10/25 00:08:35;;;;;;;31.80;12.93;;;;;;;;;;5087949;28;20388;-57
2021/10/25 00:11:02;;;;;;;40.80;12.48;;;;;;;;;;5090512;28;20036;-57
2021/10/25 00:13:29;;;;;;;28.20;11.55;;;;;;;;;;5090085;28;20075;-57
2021/10/25 00:15:56;;;;;;;29.35;12.13;;;;;;;;;;5090379;28;20126;-57
2021/10/25 00:18:22;;;;;;;25.48;12.45;;;;;;;;;;5092164;28;20056;-57
2021/10/25 00:20:48;;;;;;;28.52;12.77;;;;;;;;;;5088578;28;20507;-58
2021/10/25 00:23:15;;;;;;;34.95;12.50;;;;;;;;;;5090312;28;20392;-58
2021/10/25 00:25:41;;;;;;;30.90;13.43;;;;;;;;;;5090147;28;20407;-57
2021/10/25 00:28:08;;;;;;;21.17;11.18;;;;;;;;;;5089926;28;20041;-57
2021/10/25 00:30:34;;;;;;;31.85;13.55;;;;;;;;;;5087801;28;20048;-57
2021/10/25 00:33:00;;;;;;;31.50;12.55;;;;;;;;;;5088502;28;20048;-58
2021/10/25 00:35:27;;;;;;;25.35;12.57;;;;;;;;;;5088602;28;20138;-58
2021/10/25 00:37:54;;;;;;;23.50;11.77;;;;;;;;;;5089475;28;20067;-57
2021/10/25 00:40:20;;;;;;;34.28;13.07;;;;;;;;;;5090035;28;20048;-57
2021/10/25 00:42:46;;;;;;;27.25;13.85;;;;;;;;;;5089105;28;20052;-57
2021/10/25 00:45:13;;;;;;;23.33;11.23;;;;;;;;;;5090308;28;20059;-57
2021/10/25 00:47:40;;;;;;;32.90;13.07;;;;;;;;;;5089055;28;20100;-58
2021/10/25 00:50:06;;;;;;;25.92;11.88;;;;;;;;;;5088465;28;20075;-58
2021/10/25 00:52:33;;;;;;;27.20;12.02;;;;;;;;;;5089849;28;20036;-58
2021/10/25 00:54:59;;;;;;;25.40;12.00;;;;;;;;;;5091616;28;20097;-57
2021/10/25 00:57:29;;;;;;;24.42;10.90;;;;;;;;;;5095958;28;20079;-57
2021/10/25 00:59:55;;;;;;;28.95;10.98;;;;;;;;;;5092777;28;20048;-57
2021/10/25 01:02:22;;;;;;;28.95;11.23;;;;;;;;;;5094000;28;20516;-57
2021/10/25 01:04:49;;;;;;;29.45;11.70;;;;;;;;;;5092818;28;20068;-57
2021/10/25 01:07:16;;;;;;;29.35;10.50;;;;;;;;;;5092638;28;20040;-58
2021/10/25 01:09:42;;;;;;;29.85;11.27;;;;;;;;;;5095455;28;20098;-57
2021/10/25 01:12:09;;;;;;;25.17;10.90;;;;;;;;;;5094748;28;20082;-58
2021/10/25 01:14:35;;;;;;;33.60;12.40;;;;;;;;;;5092785;28;20135;-58
2021/10/25 01:17:01;;;;;;;26.83;11.25;;;;;;;;;;5093926;28;20109;-58
2021/10/25 01:19:28;;;;;;;25.20;10.70;;;;;;;;;;5092532;28;20095;-58
2021/10/25 01:21:54;;;;;;;47.55;19.02;;;;;;;;;;5092473;28;20075;-57
2021/10/25 01:24:20;;;;;;;35.85;15.90;;;;;;;;;;5094449;28;20064;-57
2021/10/25 01:26:46;;;;;;;40.05;13.63;;;;;;;;;;5093550;28;20071;-57
2021/10/25 01:29:13;;;;;;;27.08;11.18;;;;;;;;;;5092343;28;20078;-57
2021/10/25 01:31:39;;;;;;;32.15;13.30;;;;;;;;;;5092482;28;20085;-58
2021/10/25 01:34:06;;;;;;;25.20;11.25;;;;;;;;;;5076287;28;20063;-57
2021/10/25 01:36:35;;;;;;;22.13;10.63;;;;;;;;;;5090059;28;20063;-57
2021/10/25 01:39:01;;;;;;;24.95;10.65;;;;;;;;;;5090880;28;20411;-57
2021/10/25 01:41:28;;;;;;;21.02;10.32;;;;;;;;;;5093352;28;20083;-58
2021/10/25 01:43:57;;;;;;;26.58;11.15;;;;;;;;;;5089759;28;20415;-57
2021/10/25 01:46:23;;;;;;;23.20;9.20;;;;;;;;;;5093502;28;20036;-57
2021/10/25 01:48:50;;;;;;;23.33;11.23;;;;;;;;;;5094336;28;20059;-57
2021/10/25 01:51:18;;;;;;;25.38;10.32;;;;;;;;;;5091788;28;20101;-57
2021/10/25 01:53:45;;;;;;;21.27;11.57;;;;;;;;;;5092888;28;20052;-57
2021/10/25 01:56:13;;;;;;;34.13;11.52;;;;;;;;;;5091758;28;20146;-57
2021/10/25 01:58:42;;;;;;;25.85;9.77;;;;;;;;;;5090167;28;20044;-58
2021/10/25 02:01:08;;;;;;;30.02;11.32;;;;;;;;;;5091954;28;20124;-58
2021/10/25 02:03:36;;;;;;;18.63;9.85;;;;;;;;;;5093937;28;20102;-57
2021/10/25 02:06:12;;;;;;;23.60;9.25;;;;;;;;;;5090303;28;20055;-57
2021/10/25 02:08:39;;;;;;;24.05;11.05;;;;;;;;;;5091472;28;20094;-57
2021/10/25 02:11:06;;;;;;;38.72;10.63;;;;;;;;;;5091833;28;20048;-58
2021/10/25 02:13:35;;;;;;;22.27;11.40;;;;;;;;;;5090101;28;20096;-57
2021/10/25 02:16:05;;;;;;;24.25;10.75;;;;;;;;;;5090700;28;20079;-57
2021/10/25 02:18:31;;;;;;;19.83;9.15;;;;;;;;;;5093296;28;20044;-57
2021/10/25 02:20:59;;;;;;;26.27;10.98;;;;;;;;;;5091500;28;20040;-57
2021/10/25 02:23:26;;;;;;;20.80;10.25;;;;;;;;;;5090927;28;20098;-56
2021/10/25 02:25:56;;;;;;;19.42;9.75;;;;;;;;;;5091370;28;20084;-57
2021/10/25 02:28:22;;;;;;;23.38;9.60;;;;;;;;;;5090010;28;20040;-57
2021/10/25 02:30:53;;;;;;;22.95;9.85;;;;;;;;;;5091082;28;20048;-57
2021/10/25 02:33:21;;;;;;;24.48;11.25;;;;;;;;;;5093277;28;20051;-57
2021/10/25 02:35:48;;;;;;;22.40;10.02;;;;;;;;;;5090886;28;20051;-57
2021/10/25 02:38:17;;;;;;;24.80;10.75;;;;;;;;;;5089440;28;20102;-57
2021/10/25 02:40:49;;;;;;;24.48;12.35;;;;;;;;;;5091180;28;20054;-57
2021/10/25 02:43:15;;;;;;;36.47;13.20;;;;;;;;;;5090942;28;20609;-57
2021/10/25 02:45:43;;;;;;;31.60;12.18;;;;;;;;;;5092394;28;20060;-57
2021/10/25 02:48:11;;;;;;;28.75;12.00;;;;;;;;;;5091941;28;20059;-57
2021/10/25 02:50:38;;;;;;;22.27;10.82;;;;;;;;;;5073998;28;20051;-57
2021/10/25 02:53:07;;;;;;;37.25;12.30;;;;;;;;;;5090275;28;20064;-57
2021/10/25 02:55:34;;;;;;;26.75;11.20;;;;;;;;;;5089461;28;20040;-57
2021/10/25 02:58:00;;;;;;;20.55;10.65;;;;;;;;;;5090798;28;20048;-57
2021/10/25 03:00:27;;;;;;;22.52;10.80;;;;;;;;;;5086223;28;20526;-57
2021/10/25 03:02:53;;;;;;;21.48;11.18;;;;;;;;;;5117308;27;20063;-57
2021/10/25 03:05:19;;;;;;;20.77;10.90;;;;;;;;;;5090193;28;20101;-56
2021/10/25 03:07:46;;;;;;;20.70;11.60;;;;;;;;;;5089930;28;20478;-57
2021/10/25 03:10:13;;;;;;;23.77;11.68;;;;;;;;;;5090198;28;20093;-56
2021/10/25 03:12:40;;;;;;;37.00;12.52;;;;;;;;;;5091939;28;20044;-57
2021/10/25 03:15:08;;;;;;;31.88;12.20;;;;;;;;;;5088984;28;20110;-58
2021/10/25 03:17:35;;;;;;;43.40;14.05;;;;;;;;;;5089460;28;20063;-56
2021/10/25 03:20:25;;;;;;;26.85;12.55;;;;;;;;;;5087685;28;20080;-57
2021/10/25 03:22:51;;;;;;;30.30;12.20;;;;;;;;;;5089624;28;20465;-58
2021/10/25 03:25:20;;;;;;;29.38;13.38;;;;;;;;;;5089910;28;20043;-57
2021/10/25 03:27:48;;;;;;;29.40;13.10;;;;;;;;;;5090739;28;20086;-57
2021/10/25 03:30:15;;;;;;;25.60;13.45;;;;;;;;;;5091177;28;20051;-57
2021/10/25 03:32:45;;;;;;;35.63;12.88;;;;;;;;;;5088952;28;20475;-57
2021/10/25 03:35:30;;;;;;;31.08;12.30;;;;;;;;;;5090462;28;20076;-56
2021/10/25 03:37:58;;;;;;;29.83;11.70;;;;;;;;;;5089773;28;20123;-56
2021/10/25 03:40:24;;;;;;;31.25;14.07;;;;;;;;;;5091214;28;20074;-58
2021/10/25 03:42:53;;;;;;;27.35;13.07;;;;;;;;;;5090236;28;20151;-57
2021/10/25 03:45:35;;;;;;;29.83;13.50;;;;;;;;;;5090277;28;20398;-57
2021/10/25 03:48:09;;;;;;;26.27;12.90;;;;;;;;;;5088434;28;20121;-57
2021/10/25 03:50:38;;;;;;;27.77;13.05;;;;;;;;;;5087725;28;20169;-57
2021/10/25 03:53:25;;;;;;;32.55;12.68;;;;;;;;;;5089833;28;20086;-58
2021/10/25 03:56:02;;;;;;;34.10;14.48;;;;;;;;;;5089806;28;20092;-57
2021/10/25 03:59:38;;;;;;;32.78;13.70;;;;;;;;;;5089786;28;20063;-57
2021/10/25 04:01:56;;;;;;;;;;;;;;;;;;5076940;28;20064;-57
2021/10/25 04:27:44;;;;;;;35.15;13.45;;;;;;;;;;5090101;28;20187;-58
2021/10/25 04:30:02;;;;;;;30.65;11.90;;;;;;;;;;5090318;28;20055;-58
2021/10/25 04:32:31;;;;;;;34.95;13.80;;;;;;;;;;5093610;28;20122;-57
2021/10/25 04:35:00;;;;;;;24.85;13.30;;;;;;;;;;5093339;28;20491;-57
2021/10/25 04:37:50;;;;;;;30.75;14.20;;;;;;;;;;5091361;28;20133;-58
2021/10/25 04:40:18;;;;;;;24.80;10.80;;;;;;;;;;5093587;28;20047;-57
2021/10/25 04:42:45;;;;;;;28.30;12.05;;;;;;;;;;5094361;28;20052;-57
2021/10/25 04:45:12;;;;;;;26.15;12.52;;;;;;;;;;5117638;27;20091;-58
2021/10/25 04:47:41;;;;;;;32.90;12.52;;;;;;;;;;5114202;27;20049;-57
2021/10/25 04:50:23;;;;;;;33.67;14.05;;;;;;;;;;5086498;28;20123;-57
2021/10/25 04:53:08;;;;;;;33.90;14.18;;;;;;;;;;5091737;28;20097;-58
2021/10/25 04:55:36;;;;;;;26.95;12.20;;;;;;;;;;5093287;28;20075;-58
2021/10/25 04:58:02;;;;;;;28.80;12.48;;;;;;;;;;5094413;28;20055;-57
2021/10/25 05:00:30;;;;;;;31.98;15.15;;;;;;;;;;5094690;28;20392;-57
2021/10/25 05:02:57;;;;;;;27.20;14.15;;;;;;;;;;5091456;28;20121;-57
2021/10/25 05:05:23;;;;;;;29.42;15.23;;;;;;;;;;5090601;28;20055;-57
2021/10/25 05:07:49;;;;;;;40.83;15.43;;;;;;;;;;5090945;28;20040;-57
2021/10/25 05:10:16;;;;;;;29.15;13.23;;;;;;;;;;5092586;28;20063;-58
2021/10/25 05:12:42;;;;;;;35.90;13.10;;;;;;;;;;5093664;28;20047;-58
2021/10/25 05:15:09;;;;;;;33.65;14.98;;;;;;;;;;5093686;28;20051;-57
2021/10/25 05:17:35;;;;;;;33.72;14.75;;;;;;;;;;5092290;28;20052;-58
2021/10/25 05:20:05;;;;;;;35.42;14.45;;;;;;;;;;5092552;28;20127;-58
2021/10/25 05:22:36;;;;;;;39.15;14.60;;;;;;;;;;5092342;28;20076;-57
2021/10/25 05:25:02;;;;;;;28.85;13.35;;;;;;;;;;5092523;28;20499;-57
2021/10/25 05:27:29;;;;;;;32.13;14.82;;;;;;;;;;5095854;28;20047;-58
2021/10/25 05:29:55;;;;;;;38.38;16.95;;;;;;;;;;5092407;28;20075;-57
2021/10/25 05:32:21;;;;;;;31.88;15.38;;;;;;;;;;5090817;28;20044;-57
2021/10/25 05:34:48;;;;;;;33.33;15.27;;;;;;;;;;5092469;28;20048;-58
2021/10/25 05:37:14;;;;;;;37.90;16.23;;;;;;;;;;5091943;28;20059;-58
2021/10/25 05:39:40;;;;;;;38.17;15.13;;;;;;;;;;5092999;28;20044;-57
2021/10/25 05:42:08;;;;;;;38.38;16.67;;;;;;;;;;5084038;28;20051;-57
2021/10/25 05:44:36;;;;;;;33.55;18.13;;;;;;;;;;5092111;28;20109;-57
2021/10/25 05:47:03;;;;;;;38.17;16.60;;;;;;;;;;5092118;28;20450;-57
2021/10/25 05:49:29;;;;;;;30.10;13.70;;;;;;;;;;5086782;28;20523;-58
2021/10/25 05:51:56;;;;;;;31.52;15.93;;;;;;;;;;5077102;28;20065;-57
2021/10/25 05:54:24;;;;;;;34.78;15.10;;;;;;;;;;5081825;28;20040;-57
2021/10/25 05:56:50;;;;;;;47.38;17.98;;;;;;;;;;5079961;28;20514;-57
2021/10/25 05:59:16;;;;;;;35.15;17.58;;;;;;;;;;5084946;28;20083;-57
2021/10/25 06:01:54;;;;;;;42.22;16.67;;;;;;;;;;5088260;28;20070;-57
2021/10/25 06:04:26;;;;;;;46.22;17.55;;;;;;;;;;5086701;28;20527;-57
2021/10/25 06:07:14;;;;;;;36.28;14.82;;;;;;;;;;5083377;28;20055;-58
2021/10/25 06:09:41;;;;;;;34.97;16.67;;;;;;;;;;5082342;28;20128;-58
2021/10/25 06:12:15;;;;;;;48.42;18.88;;;;;;;;;;5080333;28;20106;-58
2021/10/25 06:15:05;;;;;;;34.22;16.73;;;;;;;;;;5118307;27;20126;-58
2021/10/25 06:20:05;;;;;;;40.30;17.95;;;;;;;;;;5085642;28;20550;-58
2021/10/25 06:22:35;;;;;;;32.17;15.15;;;;;;;;;;5086085;28;20047;-57
2021/10/25 06:25:01;;;;;;;52.45;16.05;;;;;;;;;;5088413;28;20849;-58
2021/10/25 06:27:29;;;;;;;33.60;15.15;;;;;;;;;;5084114;28;20048;-58
2021/10/25 06:29:56;;;;;;;38.58;15.63;;;;;;;;;;5083250;28;20039;-58
2021/10/25 06:32:22;;;;;;;40.08;15.25;;;;;;;;;;5081210;28;20115;-58
2021/10/25 06:34:50;;;;;;;35.97;17.15;;;;;;;;;;5085756;28;20492;-58
2021/10/25 06:37:50;;;;;;;44.20;16.75;;;;;;;;;;5067993;28;20049;-58
2021/10/25 06:40:19;;;;;;;39.35;16.50;;;;;;;;;;5066517;28;20139;-58
2021/10/25 06:42:48;;;;;;;32.35;17.35;;;;;;;;;;5040882;28;20584;-58
2021/10/25 06:45:17;;;;;;;40.55;17.80;;;;;;;;;;5041717;28;20056;-58
2021/10/25 06:47:46;;;;;;;45.13;16.25;;;;;;;;;;5069541;28;20151;-58
2021/10/25 06:50:14;;;;;;;31.10;14.75;;;;;;;;;;5068943;28;20052;-58
2021/10/25 06:53:04;;;;;;;40.97;16.90;;;;;;;;;;5068004;28;20189;-58
2021/10/25 06:55:40;;;;;;;32.28;13.90;;;;;;;;;;5047739;28;20083;-57
2021/10/25 06:58:09;;;;;;;29.58;10.88;;;;;;;;;;5045254;28;20166;-57
2021/10/25 07:00:36;;;;;;;37.33;16.17;;;;;;;;;;5047024;28;20056;-57
2021/10/25 07:03:02;;;;;;;49.78;19.50;;;;;;;;;;5045610;28;20053;-57
2021/10/25 07:05:34;;;;;;;48.28;19.85;;;;;;;;;;5049812;28;20441;-57
2021/10/25 07:08:02;;;;;;;43.80;17.73;;;;;;;;;;5052490;28;20071;-57
2021/10/25 07:10:30;;;;;;;33.38;15.70;;;;;;;;;;5049700;28;20053;-57
2021/10/25 07:12:58;;;;;;;30.00;14.15;;;;;;;;;;5050767;28;20060;-56
2021/10/25 07:15:25;;;;;;;36.75;13.80;;;;;;;;;;5084543;28;20059;-56
2021/10/25 07:26:27;;;;;;;28.67;12.90;;;;;;;;;;5088175;28;20060;-56
2021/10/25 08:00:33;;;;;;;27.48;12.43;;;;;;;;;;5029071;28;20096;-56
2021/10/25 08:13:30;;;;;;;28.63;11.32;;;;;;;;;;4990543;28;20564;-56
2021/10/25 08:15:58;;;;;;;20.35;10.60;;;;;;;;;;5008134;28;20506;-56
2021/10/25 08:21:00;;;;;;;21.83;11.27;;;;;;;;;;4987550;28;20053;-56
2021/10/25 08:23:27;;;;;;;20.75;9.63;;;;;;;;;;5005198;28;20058;-56
2021/10/25 08:25:55;;;;;;;24.85;10.90;;;;;;;;;;4987366;28;20073;-57
2021/10/25 08:28:23;;;;;;;23.60;11.82;;;;;;;;;;4992246;28;20621;-56
2021/10/25 08:30:51;;;;;;;22.45;10.32;;;;;;;;;;5006547;28;20100;-57
2021/10/25 08:33:40;;;;;;;25.77;10.05;;;;;;;;;;4989115;28;20050;-57
2021/10/25 08:36:22;;;;;;;15.85;8.60;;;;;;;;;;5015172;28;20083;-57
2021/10/25 08:42:11;;;;;;;29.63;10.75;;;;;;;;;;5051908;28;20110;-57
2021/10/25 08:44:39;;;;;;;19.40;10.23;;;;;;;;;;5057936;28;20412;-57
2021/10/25 08:47:06;;;;;;;17.02;7.40;;;;;;;;;;5078684;28;20557;-57
2021/10/25 08:49:33;;;;;;;18.00;8.10;;;;;;;;;;5088132;28;20150;-57
2021/10/25 08:52:00;;;;;;;16.30;8.10;;;;;;;;;;5088037;28;20064;-57
2021/10/25 08:54:31;;;;;;;20.70;10.20;;;;;;;;;;5090451;28;20036;-57
2021/10/25 08:56:59;;;;;;;19.15;8.07;;;;;;;;;;5088257;28;20547;-58
2021/10/25 08:59:32;;;;;;;19.98;8.15;;;;;;;;;;5086668;28;20452;-58
2021/10/25 09:02:05;;;;;;;18.92;8.60;;;;;;;;;;5089346;28;20392;-58
2021/10/25 09:04:42;;;;;;;14.70;7.43;;;;;;;;;;5088358;28;20063;-58
2021/10/25 09:07:18;;;;;;;12.63;7.20;;;;;;;;;;5073311;28;20040;-58
2021/10/25 09:09:45;;;;;;;12.88;7.10;;;;;;;;;;5089116;28;20515;-58
2021/10/25 09:12:15;;;;;;;15.88;7.93;;;;;;;;;;5089072;28;20044;-58
2021/10/25 09:14:57;;;;;;;14.80;6.60;;;;;;;;;;5088480;28;20094;-59
2021/10/25 09:17:25;;;;;;;9.98;5.88;;;;;;;;;;5091882;28;20048;-58
2021/10/25 09:19:53;;;;;;;10.90;6.38;;;;;;;;;;5091239;28;20511;-59
2021/10/25 09:22:22;;;;;;;11.15;6.20;;;;;;;;;;5092682;28;20451;-59
2021/10/25 09:24:53;;;;;;;12.60;6.50;;;;;;;;;;5092919;28;20439;-59
2021/10/25 09:27:51;;;;;;;12.95;6.30;;;;;;;;;;5093593;28;20068;-59
2021/10/25 09:30:47;;;;;;;14.20;6.55;;;;;;;;;;5123674;27;20062;-60
2021/10/25 09:33:20;;;;;;;16.77;7.97;;;;;;;;;;5093115;28;20079;-59
2021/10/25 09:36:09;;;;;;;13.93;5.90;;;;;;;;;;5092013;28;20076;-59
2021/10/25 09:49:28;;;;;;;13.52;6.80;;;;;;;;;;5077220;28;20112;-60
2021/10/25 09:51:55;;;;;;;14.57;6.88;;;;;;;;;;5091230;28;20047;-59
2021/10/25 09:54:24;;;;;;;13.63;5.43;;;;;;;;;;5091629;28;20137;-59
2021/10/25 10:00:18;;;;;;;12.52;6.35;;;;;;;;;;5091082;28;20584;-60
2021/10/25 10:02:48;;;;;;;17.23;7.75;;;;;;;;;;5090717;28;20070;-59
2021/10/25 10:05:35;;;;;;;14.73;8.10;;;;;;;;;;5089652;28;20051;-59
2021/10/25 10:08:01;;;;;;;18.75;8.25;;;;;;;;;;5090590;28;20068;-60
2021/10/25 10:10:32;;;;;;;13.32;7.30;;;;;;;;;;5089388;28;20048;-60
2021/10/25 10:13:03;;;;;;;16.55;8.02;;;;;;;;;;5092537;28;20052;-60
2021/10/25 10:15:38;;;;;;;12.38;8.00;;;;;;;;;;5093587;28;20134;-59
2021/10/25 10:18:11;;;;;;;13.05;7.35;;;;;;;;;;5091336;28;20118;-59
2021/10/25 10:20:58;;;;;;;12.13;7.75;;;;;;;;;;5092179;28;20495;-59
2021/10/25 10:23:25;;;;;;;13.75;7.85;;;;;;;;;;5091147;28;20071;-59
2021/10/25 10:25:56;;;;;;;16.48;8.05;;;;;;;;;;5089280;28;20039;-59
2021/10/25 10:28:32;;;;;;;16.15;7.85;;;;;;;;;;5091191;28;20070;-60
2021/10/25 10:31:00;;;;;;;15.32;7.93;;;;;;;;;;5091229;28;20461;-59
2021/10/25 10:33:32;;;;;;;15.02;8.02;;;;;;;;;;5092895;28;20089;-59
2021/10/25 10:36:08;;;;;;;14.40;7.97;;;;;;;;;;5090728;28;20036;-60
2021/10/25 10:38:51;;;;;;;12.05;6.68;;;;;;;;;;5090603;28;20174;-59
2021/10/25 10:41:36;;;;;;;15.55;7.40;;;;;;;;;;5090775;28;20036;-60
2021/10/25 10:44:17;;;;;;;14.75;7.47;;;;;;;;;;5089223;28;20075;-59
2021/10/25 10:46:45;;;;;;;15.40;5.63;;;;;;;;;;5090630;28;20130;-60
2021/10/25 10:49:35;;;;;;;17.05;7.05;;;;;;;;;;5091470;28;20079;-59
2021/10/25 10:52:06;;;;;;;16.38;7.53;;;;;;;;;;5091884;28;20476;-59
2021/10/25 10:54:47;;;;;;;15.38;7.40;;;;;;;;;;5093890;28;20075;-60
2021/10/25 10:57:27;;;;;;;14.70;6.90;;;;;;;;;;5092996;28;20414;-60
2021/10/25 10:59:59;;;;;;;12.02;6.65;;;;;;;;;;5091584;28;20121;-60
2021/10/25 11:02:25;;;;;;;10.57;5.68;;;;;;;;;;5091643;28;20549;-59
2021/10/25 11:04:52;;;;;;;12.45;6.25;;;;;;;;;;5090251;28;20399;-60
2021/10/25 11:07:18;;;;;;;10.68;6.05;;;;;;;;;;5085060;28;20531;-59
2021/10/25 11:09:45;;;;;;;14.15;6.13;;;;;;;;;;5076523;28;20046;-60
2021/10/25 11:12:12;;;;;;;11.70;5.97;;;;;;;;;;5074697;28;20094;-60
2021/10/25 11:14:39;;;;;;;11.63;5.82;;;;;;;;;;5074893;28;20072;-60
2021/10/25 11:17:22;;;;;;;12.55;6.45;;;;;;;;;;5072097;28;20093;-60
2021/10/25 11:19:50;;;;;;;14.27;6.03;;;;;;;;;;5074882;28;20076;-60
2021/10/25 11:22:30;;;;;;;12.35;5.57;;;;;;;;;;5077067;28;20522;-60
2021/10/25 11:24:56;;;;;;;10.85;5.85;;;;;;;;;;5080711;28;20052;-59
2021/10/25 11:27:30;;;;;;;9.75;5.53;;;;;;;;;;5086550;28;20071;-60
2021/10/25 11:29:58;;;;;;;;;;;;;;;;;;5088846;28;20074;-60
2021/10/25 11:32:28;;;;;;;16.08;9.40;;;;;;;;;;5089316;28;19920;-60
2021/10/25 11:34:55;;;;;;;12.73;7.45;;;;;;;;;;5075831;28;20048;-60
2021/10/25 11:37:23;;;;;;;17.58;6.85;;;;;;;;;;5084218;28;20531;-60
2021/10/25 11:40:08;;;;;;;18.38;7.25;;;;;;;;;;5085915;28;20074;-60
2021/10/25 11:42:39;;;;;;;40.53;16.98;;;;;;;;;;5086463;28;20055;-60
2021/10/25 11:45:19;;;;;;;50.42;16.90;;;;;;;;;;5092785;28;20071;-60
2021/10/25 11:47:47;;;;;;;32.38;17.58;;;;;;;;;;5086423;28;20068;-60
2021/10/25 11:50:14;;;;;;;22.23;13.23;;;;;;;;;;5075824;28;20416;-61
2021/10/25 11:52:43;;;;;;;17.15;9.55;;;;;;;;;;5076826;28;20040;-61
2021/10/25 11:55:10;;;;;;;27.42;16.50;;;;;;;;;;5077686;28;20124;-60
2021/10/25 11:57:37;;;;;;;19.38;10.90;;;;;;;;;;5078050;28;20044;-61
2021/10/25 12:00:07;;;;;;;26.05;13.07;;;;;;;;;;5076096;28;20479;-61
2021/10/25 12:02:41;;;;;;;17.20;8.93;;;;;;;;;;5071786;28;20087;-60
2021/10/25 12:05:08;;;;;;;24.50;11.88;;;;;;;;;;5086959;28;20518;-60
2021/10/25 12:07:45;;;;;;;17.77;10.07;;;;;;;;;;5082301;28;20415;-60
2021/10/25 12:10:11;;;;;;;18.17;10.30;;;;;;;;;;5077777;28;20090;-60
2021/10/25 12:12:38;;;;;;;17.30;9.60;;;;;;;;;;5077594;28;20044;-59
2021/10/25 12:15:04;;;;;;;19.58;10.52;;;;;;;;;;5076495;28;20052;-60
2021/10/25 12:17:33;;;;;;;15.50;10.05;;;;;;;;;;5074089;28;20083;-60
2021/10/25 12:20:00;;;;;;;19.83;8.77;;;;;;;;;;5076432;28;20057;-60
2021/10/25 12:22:27;;;;;;;16.23;9.57;;;;;;;;;;5077387;28;20051;-61
2021/10/25 12:24:55;;;;;;;18.15;8.68;;;;;;;;;;5082964;28;20106;-60
2021/10/25 12:27:26;;;;;;;16.27;8.82;;;;;;;;;;5090458;28;20463;-60
2021/10/25 12:30:00;;;;;;;13.82;7.72;;;;;;;;;;5090291;28;20085;-60
2021/10/25 12:32:26;;;;;;;19.30;9.37;;;;;;;;;;5090104;28;20127;-60
2021/10/25 12:34:56;;;;;;;16.83;9.45;;;;;;;;;;5091901;28;20325;-61
2021/10/25 12:37:27;;;;;;;16.67;9.25;;;;;;;;;;5090247;28;20068;-61
2021/10/25 12:39:55;;;;;;;15.88;9.07;;;;;;;;;;5088498;28;20098;-61
2021/10/25 12:42:22;;;;;;;17.00;8.52;;;;;;;;;;5090147;28;20063;-61
2021/10/25 12:44:51;;;;;;;19.17;9.48;;;;;;;;;;5090084;28;20044;-61
2021/10/25 12:47:19;;;;;;;15.25;8.93;;;;;;;;;;5091159;28;20059;-61
2021/10/25 12:49:47;;;;;;;18.20;9.52;;;;;;;;;;5093226;28;20044;-60
2021/10/25 12:52:14;;;;;;;14.63;8.55;;;;;;;;;;5094011;28;20047;-60
2021/10/25 12:54:41;;;;;;;20.48;10.15;;;;;;;;;;5093972;28;20070;-61
2021/10/25 12:57:16;;;;;;;18.75;9.23;;;;;;;;;;5094226;28;20503;-61
2021/10/25 12:59:43;;;;;;;17.05;8.40;;;;;;;;;;5078298;28;20044;-60
2021/10/25 13:02:09;;;;;;;21.33;8.70;;;;;;;;;;5095817;28;20097;-60
2021/10/25 13:04:38;;;;;;;14.65;8.27;;;;;;;;;;5092449;28;20051;-61
2021/10/25 13:07:14;;;;;;;14.23;8.55;;;;;;;;;;5094027;28;20051;-60
2021/10/25 13:09:47;;;;;;;16.40;8.60;;;;;;;;;;5093665;28;20059;-61
2021/10/25 13:12:14;;;;;;;15.18;8.07;;;;;;;;;;5092725;28;20060;-61
2021/10/25 13:14:40;;;;;;;16.10;8.13;;;;;;;;;;5094100;28;20056;-60
2021/10/25 13:17:07;;;;;;;16.80;8.85;;;;;;;;;;5095535;28;20040;-60
2021/10/25 13:19:33;;;;;;;14.07;8.77;;;;;;;;;;5091900;28;20091;-60
2021/10/25 13:22:00;;;;;;;16.38;9.25;;;;;;;;;;5093513;28;20410;-60
2021/10/25 13:24:26;;;;;;;18.73;9.23;;;;;;;;;;5093319;28;20062;-60
2021/10/25 13:26:52;;;;;;;15.40;9.52;;;;;;;;;;5093269;28;20048;-61
2021/10/25 13:29:19;;;;;;;14.93;8.35;;;;;;;;;;5094114;28;20048;-60
2021/10/25 13:31:45;;;;;;;19.85;9.73;;;;;;;;;;5094620;28;20044;-61
2021/10/25 13:34:12;;;;;;;16.35;8.85;;;;;;;;;;5093337;28;20082;-60
2021/10/25 13:36:40;;;;;;;16.23;9.77;;;;;;;;;;5093116;28;20043;-60
2021/10/25 13:39:09;;;;;;;14.48;7.13;;;;;;;;;;5092862;28;20055;-61
2021/10/25 13:41:35;;;;;;;18.85;10.68;;;;;;;;;;5090784;28;20471;-60
2021/10/25 13:44:01;;;;;;;14.20;7.95;;;;;;;;;;5094958;28;20381;-60
2021/10/25 13:46:27;;;;;;;16.17;8.80;;;;;;;;;;5088596;28;20044;-60
2021/10/25 13:48:54;;;;;;;15.80;9.00;;;;;;;;;;5088351;28;20081;-60
2021/10/25 13:51:20;;;;;;;18.73;8.60;;;;;;;;;;5088704;28;20174;-60
2021/10/25 13:53:46;;;;;;;15.10;9.35;;;;;;;;;;5092371;28;20044;-60
2021/10/25 13:56:14;;;;;;;14.82;8.50;;;;;;;;;;5090639;28;20080;-61
2021/10/25 13:58:40;;;;;;;16.40;8.55;;;;;;;;;;5079742;28;20044;-60
2021/10/25 14:01:07;;;;;;;13.23;8.30;;;;;;;;;;5079407;28;20055;-60
2021/10/25 14:03:36;;;;;;;17.05;9.25;;;;;;;;;;5079898;28;20067;-60
2021/10/25 14:06:04;;;;;;;16.35;8.75;;;;;;;;;;5077846;28;20496;-60
2021/10/25 14:08:30;;;;;;;15.55;8.68;;;;;;;;;;5082695;28;20060;-60
2021/10/25 14:10:58;;;;;;;16.20;9.00;;;;;;;;;;5090187;28;20522;-60
2021/10/25 14:16:33;;;;;;;14.75;7.88;;;;;;;;;;5083069;28;20051;-57
2021/10/25 14:18:42;;;;;;;15.73;8.52;;;;;;;;;;5083043;28;20135;-59
2021/10/25 14:21:08;;;;;;;17.40;8.73;;;;;;;;;;5092416;28;20054;-58
2021/10/25 14:23:35;;;;;;;20.10;8.45;;;;;;;;;;5092300;28;20059;-58
2021/10/25 14:26:02;;;;;;;16.13;8.70;;;;;;;;;;5094201;28;20141;-58
2021/10/25 14:28:32;;;;;;;12.80;7.93;;;;;;;;;;5091940;28;20503;-58
2021/10/25 14:30:59;;;;;;;20.27;9.02;;;;;;;;;;5092076;28;20511;-58
2021/10/25 14:33:26;;;;;;;20.77;9.52;;;;;;;;;;5092224;28;20095;-58
2021/10/25 14:35:53;;;;;;;15.80;8.35;;;;;;;;;;5090451;28;20090;-59
2021/10/25 14:41:08;;;;;;;15.63;8.25;;;;;;;;;;5093439;28;20079;-58
2021/10/25 14:43:43;;;;;;;16.63;8.73;;;;;;;;;;5091687;28;20052;-57
2021/10/25 14:46:21;;;;;;;19.50;8.88;;;;;;;;;;5091680;28;20466;-58
2021/10/25 14:49:02;;;;;;;23.13;9.35;;;;;;;;;;5092029;28;20560;-58
2021/10/25 14:54:25;;;;;;;16.23;9.70;;;;;;;;;;5091668;28;20130;-57
2021/10/25 14:56:52;;;;;;;21.27;8.05;;;;;;;;;;5077012;28;20128;-58
2021/10/25 14:59:18;;;;;;;21.50;9.85;;;;;;;;;;5092081;28;20527;-58
2021/10/25 15:01:44;;;;;;;19.35;9.07;;;;;;;;;;5086157;28;20048;-59
2021/10/25 15:04:13;;;;;;;19.23;9.45;;;;;;;;;;5091388;28;20083;-58
2021/10/25 15:06:39;;;;;;;20.98;9.90;;;;;;;;;;5089331;28;20511;-58
2021/10/25 15:09:05;;;;;;;18.38;9.30;;;;;;;;;;5078722;28;20102;-59
2021/10/25 15:11:32;;;;;;;17.05;8.82;;;;;;;;;;5081185;28;20078;-58
2021/10/25 15:13:58;;;;;;;20.67;9.23;;;;;;;;;;5086733;28;20039;-58
2021/10/25 15:16:24;;;;;;;16.27;8.25;;;;;;;;;;5074907;28;20122;-57
2021/10/25 15:18:51;;;;;;;21.77;10.23;;;;;;;;;;5089361;28;20130;-57
2021/10/25 15:21:19;;;;;;;15.20;8.70;;;;;;;;;;5088184;28;20102;-58
2021/10/25 15:23:46;;;;;;;17.90;8.55;;;;;;;;;;5086523;28;20563;-58
2021/10/25 15:26:13;;;;;;;14.35;8.10;;;;;;;;;;5085981;28;20075;-58
2021/10/25 15:28:39;;;;;;;20.17;9.27;;;;;;;;;;5087133;28;20044;-58
2021/10/25 15:31:06;;;;;;;16.05;8.85;;;;;;;;;;5090603;28;20047;-58
2021/10/25 15:33:32;;;;;;;13.20;8.23;;;;;;;;;;5088542;28;20079;-57
2021/10/25 15:35:58;;;;;;;24.77;10.32;;;;;;;;;;5086220;28;20483;-58
2021/10/25 15:38:26;;;;;;;21.55;9.38;;;;;;;;;;5094062;28;20066;-57
2021/10/25 15:40:53;;;;;;;20.98;9.40;;;;;;;;;;5090371;28;20072;-56
2021/10/25 15:43:19;;;;;;;22.05;10.80;;;;;;;;;;5090968;28;20059;-58
2021/10/25 15:45:45;;;;;;;20.05;9.50;;;;;;;;;;5092071;28;20040;-59
2021/10/25 15:48:12;;;;;;;19.00;8.75;;;;;;;;;;5091408;28;20074;-58
2021/10/25 15:50:40;;;;;;;18.10;9.93;;;;;;;;;;5090535;28;20043;-58
2021/10/25 15:53:06;;;;;;;21.33;9.00;;;;;;;;;;5087577;28;20075;-58
2021/10/25 15:55:34;;;;;;;20.80;9.43;;;;;;;;;;5081193;28;20056;-57
2021/10/25 15:58:01;;;;;;;20.88;9.55;;;;;;;;;;5090037;28;20044;-58
2021/10/25 16:00:27;;;;;;;22.08;9.65;;;;;;;;;;5088696;28;20495;-58
2021/10/25 16:02:54;;;;;;;21.50;9.60;;;;;;;;;;5081661;28;20412;-57
2021/10/25 16:05:22;;;;;;;23.17;10.15;;;;;;;;;;5084431;28;20036;-56
2021/10/25 16:07:51;;;;;;;20.45;9.40;;;;;;;;;;5080363;28;20032;-58
2021/10/25 16:10:17;;;;;;;20.67;9.73;;;;;;;;;;5087248;28;20047;-58
2021/10/25 16:12:44;;;;;;;25.27;9.68;;;;;;;;;;5079330;28;20056;-56
2021/10/25 16:15:10;;;;;;;18.00;8.95;;;;;;;;;;5078550;28;20079;-58
2021/10/25 16:17:36;;;;;;;18.95;8.75;;;;;;;;;;5075514;28;20095;-57
2021/10/25 16:20:04;;;;;;;17.15;8.40;;;;;;;;;;5074803;28;20143;-57
2021/10/25 16:22:31;;;;;;;19.20;8.75;;;;;;;;;;5075694;28;20132;-58